EKSD weather

Spjald Airport
Spjald, Central Jutland, Denmark

Public forecast

Using degrees Celsius for public forecast. Weather courtesy of forecast.io.

Closest aviation weather report (METAR) to Spjald Airport

Closest report is Stauning Airport, 8.6 nm (16.0 km) SW. Retrieved 2019/10/19 10:50 UTC (56 minutes ago):

EKVJ 191050Z 18015KT 9999 SCT012 SCT015CB 13/12 Q1001

Closest aviation forecast (TAF) to Spjald Airport

Closest forecast is Karup Airport, 23.5 nm (43.5 km) ENE. Retrieved 2019/10/19 09:31 UTC (2 hours ago):

TAF EKKA 190829Z 1909/2009 18010KT 9999 BKN030 TEMPO 1909/1920 4000 SHRA BKN012 FEW020CB TEMPO 1920/2009 3000 BR -SHRA BKN006 SCT020TCU